createdAt,value
2019-02-17T00:00:03.983Z,0
2019-02-17T00:01:03.972Z,0
2019-02-17T00:02:03.569Z,0
2019-02-17T00:03:03.695Z,0
2019-02-17T00:04:03.943Z,0
2019-02-17T00:05:03.423Z,0
2019-02-17T00:06:03.667Z,0
2019-02-17T00:07:03.431Z,0
2019-02-17T00:08:03.404Z,0
2019-02-17T00:09:03.423Z,0
2019-02-17T00:10:03.384Z,0
2019-02-17T00:11:03.622Z,0
2019-02-17T00:12:03.600Z,0
2019-02-17T00:13:03.598Z,0
2019-02-17T00:14:03.351Z,0
2019-02-17T00:15:03.582Z,0
2019-02-17T00:16:03.805Z,0
2019-02-17T00:17:03.351Z,0
2019-02-17T00:18:03.370Z,0
2019-02-17T00:19:03.780Z,0
2019-02-17T00:20:03.779Z,0
2019-02-17T00:21:03.520Z,0
2019-02-17T00:22:03.263Z,0
2019-02-17T00:23:03.752Z,0
2019-02-17T00:24:03.497Z,0
2019-02-17T00:25:03.241Z,0
2019-02-17T00:26:03.495Z,0
2019-02-17T00:27:03.459Z,0
2019-02-17T00:28:03.471Z,0
2019-02-17T00:29:06.853Z,0
2019-02-17T00:30:03.197Z,0
2019-02-17T00:31:03.608Z,0
2019-02-17T00:32:03.392Z,0
2019-02-17T00:33:03.421Z,0
2019-02-17T00:34:03.401Z,0
2019-02-17T00:35:02.869Z,0
2019-02-17T00:36:03.360Z,0
2019-02-17T00:37:03.153Z,0
2019-02-17T00:38:02.838Z,0
2019-02-17T00:39:03.641Z,0
2019-02-17T00:40:03.557Z,0
2019-02-17T00:41:03.388Z,0
2019-02-17T00:42:03.556Z,0
2019-02-17T00:43:03.050Z,0
2019-02-17T00:44:03.281Z,0
2019-02-17T00:45:03.363Z,0
2019-02-17T00:46:03.261Z,0
2019-02-17T00:47:03.002Z,0
2019-02-17T00:48:02.971Z,0
2019-02-17T00:49:03.009Z,0
2019-02-17T00:50:02.962Z,0
2019-02-17T00:51:03.224Z,0
2019-02-17T00:52:03.204Z,0
2019-02-17T00:53:02.934Z,0
2019-02-17T00:54:02.921Z,0
2019-02-17T00:55:03.184Z,0
2019-02-17T00:56:03.407Z,0
2019-02-17T00:57:03.406Z,0
2019-02-17T00:58:02.873Z,0
2019-02-17T00:59:12.567Z,0
2019-02-17T01:00:02.861Z,0
2019-02-17T01:01:03.424Z,0
2019-02-17T01:02:03.111Z,0
2019-02-17T01:03:03.103Z,0
2019-02-17T01:04:02.817Z,0
2019-02-17T01:05:02.810Z,0
2019-02-17T01:06:02.792Z,0
2019-02-17T01:07:03.047Z,0
2019-02-17T01:08:03.023Z,0
2019-02-17T01:09:03.013Z,0
2019-02-17T01:10:03.032Z,0
2019-02-17T01:11:03.231Z,0
2019-02-17T01:12:02.975Z,0
2019-02-17T01:13:02.739Z,0
2019-02-17T01:14:02.945Z,0
2019-02-17T01:15:03.209Z,0
2019-02-17T01:16:02.730Z,0
2019-02-17T01:17:02.933Z,0
2019-02-17T01:18:02.416Z,0
2019-02-17T01:19:02.640Z,0
2019-02-17T01:20:03.145Z,0
2019-02-17T01:21:02.642Z,0
2019-02-17T01:22:03.101Z,0
2019-02-17T01:23:02.851Z,0
2019-02-17T01:24:02.896Z,0
2019-02-17T01:25:02.841Z,0
2019-02-17T01:26:02.339Z,0
2019-02-17T01:27:03.049Z,0
2019-02-17T01:28:02.558Z,0
2019-02-17T01:29:02.545Z,0
2019-02-17T01:30:02.719Z,0
2019-02-17T01:31:02.773Z,0
2019-02-17T01:32:03.004Z,0
2019-02-17T01:33:02.493Z,0
2019-02-17T01:34:04.341Z,0
2019-02-17T01:35:02.969Z,0
2019-02-17T01:36:02.966Z,0
2019-02-17T01:37:02.438Z,0
2019-02-17T01:38:02.902Z,0
2019-02-17T01:39:02.925Z,0
2019-02-17T01:40:02.475Z,0
2019-02-17T01:41:02.671Z,0
2019-02-17T01:42:02.391Z,0
2019-02-17T01:43:02.880Z,0
2019-02-17T01:44:02.883Z,0
2019-02-17T01:45:02.682Z,0
2019-02-17T01:46:02.867Z,0
2019-02-17T01:47:02.583Z,0
2019-02-17T01:48:02.297Z,0
2019-02-17T01:49:02.558Z,0
2019-02-17T01:50:02.697Z,0
2019-02-17T01:51:02.307Z,0
2019-02-17T01:52:02.516Z,0
2019-02-17T01:53:02.771Z,0
2019-02-17T01:54:02.479Z,0
2019-02-17T01:55:02.225Z,0
2019-02-17T01:56:01.984Z,0
2019-02-17T01:57:02.469Z,0
2019-02-17T01:58:02.449Z,0
2019-02-17T01:59:02.469Z,0
2019-02-17T02:00:02.791Z,0
2019-02-17T02:01:02.640Z,0
2019-02-17T02:02:02.404Z,0
2019-02-17T02:03:02.372Z,0
2019-02-17T02:04:03.319Z,0
2019-02-17T02:05:02.698Z,0
2019-02-17T02:06:02.327Z,0
2019-02-17T02:07:02.326Z,0
2019-02-17T02:08:02.318Z,0
2019-02-17T02:09:02.061Z,0
2019-02-17T02:10:02.307Z,0
2019-02-17T02:11:02.283Z,0
2019-02-17T02:12:02.558Z,0
2019-02-17T02:13:02.260Z,0
2019-02-17T02:14:02.006Z,0
2019-02-17T02:15:01.981Z,0
2019-02-17T02:16:02.512Z,0
2019-02-17T02:17:02.459Z,0
2019-02-17T02:18:01.698Z,0
2019-02-17T02:19:02.472Z,0
2019-02-17T02:20:02.434Z,0
2019-02-17T02:21:02.165Z,0
2019-02-17T02:22:02.151Z,0
2019-02-17T02:23:02.131Z,0
2019-02-17T02:24:02.374Z,0
2019-02-17T02:25:01.862Z,0
2019-02-17T02:26:02.102Z,0
2019-02-17T02:27:02.097Z,0
2019-02-17T02:28:02.328Z,0
2019-02-17T02:29:02.322Z,0
2019-02-17T02:30:02.294Z,0
2019-02-17T02:31:02.302Z,0
2019-02-17T02:32:02.290Z,0
2019-02-17T02:33:02.102Z,0
2019-02-17T02:34:02.264Z,0
2019-02-17T02:35:02.048Z,0
2019-02-17T02:36:01.746Z,0
2019-02-17T02:37:01.974Z,0
2019-02-17T02:38:02.222Z,0
2019-02-17T02:39:01.970Z,0
2019-02-17T02:40:01.959Z,0
2019-02-17T02:41:01.947Z,0
2019-02-17T02:42:01.697Z,0
2019-02-17T02:43:02.163Z,0
2019-02-17T02:44:01.954Z,0
2019-02-17T02:45:01.904Z,0
2019-02-17T02:46:01.638Z,0
2019-02-17T02:47:01.874Z,0
2019-02-17T02:48:02.145Z,0
2019-02-17T02:49:01.857Z,0
2019-02-17T02:50:01.601Z,0
2019-02-17T02:51:02.073Z,0
2019-02-17T02:52:01.592Z,0
2019-02-17T02:53:01.803Z,0
2019-02-17T02:54:01.818Z,0
2019-02-17T02:55:01.789Z,0
2019-02-17T02:56:01.768Z,0
2019-02-17T02:57:01.742Z,0
2019-02-17T02:58:01.767Z,0
2019-02-17T02:59:01.761Z,0
2019-02-17T03:00:01.489Z,0
2019-02-17T03:01:01.975Z,0
2019-02-17T03:02:01.966Z,0
2019-02-17T03:03:01.686Z,0
2019-02-17T03:04:01.684Z,0
2019-02-17T03:05:01.717Z,0
2019-02-17T03:06:01.946Z,0
2019-02-17T03:07:01.669Z,0
2019-02-17T03:08:01.661Z,0
2019-02-17T03:09:01.869Z,0
2019-02-17T03:10:01.681Z,0
2019-02-17T03:11:01.860Z,0
2019-02-17T03:12:01.415Z,0
2019-02-17T03:13:01.828Z,0
2019-02-17T03:14:01.665Z,0
2019-02-17T03:15:01.809Z,0
2019-02-17T03:16:01.301Z,0
2019-02-17T03:17:03.248Z,0
2019-02-17T03:18:01.550Z,0
2019-02-17T03:19:01.294Z,0
2019-02-17T03:20:01.746Z,0
2019-02-17T03:21:01.514Z,0
2019-02-17T03:22:01.479Z,0
2019-02-17T03:23:01.453Z,0
2019-02-17T03:24:01.721Z,0
2019-02-17T03:25:01.213Z,0
2019-02-17T03:26:01.444Z,0
2019-02-17T03:27:01.431Z,0
2019-02-17T03:28:01.406Z,0
2019-02-17T03:29:01.638Z,0
2019-02-17T03:30:12.012Z,0
2019-02-17T03:31:01.169Z,0
2019-02-17T03:32:01.870Z,0
2019-02-17T03:33:01.633Z,0
2019-02-17T03:34:01.395Z,0
2019-02-17T03:35:01.122Z,0
2019-02-17T03:36:01.588Z,0
2019-02-17T03:37:01.304Z,0
2019-02-17T03:38:01.090Z,0
2019-02-17T03:39:01.271Z,0
2019-02-17T03:40:01.247Z,0
2019-02-17T03:41:01.532Z,0
2019-02-17T03:42:01.470Z,0
2019-02-17T03:43:01.474Z,0
2019-02-17T03:44:01.446Z,0
2019-02-17T03:45:01.480Z,0
2019-02-17T03:46:01.188Z,0
2019-02-17T03:47:01.165Z,0
2019-02-17T03:48:01.426Z,0
2019-02-17T03:49:01.183Z,0
2019-02-17T03:50:01.131Z,0
2019-02-17T03:51:01.388Z,0
2019-02-17T03:52:00.857Z,0
2019-02-17T03:53:01.354Z,0
2019-02-17T03:54:01.083Z,0
2019-02-17T03:55:01.091Z,0
2019-02-17T03:56:01.073Z,0
2019-02-17T03:57:01.313Z,0
2019-02-17T03:58:01.054Z,0
2019-02-17T03:59:01.277Z,0
2019-02-17T04:00:01.030Z,0
2019-02-17T04:01:01.264Z,0
2019-02-17T04:02:01.252Z,0
2019-02-17T04:03:01.223Z,0
2019-02-17T04:04:00.737Z,0
2019-02-17T04:05:01.470Z,0
2019-02-17T04:06:01.231Z,0
2019-02-17T04:07:01.260Z,0
2019-02-17T04:08:01.221Z,0
2019-02-17T04:09:01.259Z,0
2019-02-17T04:10:01.156Z,0
2019-02-17T04:11:01.139Z,0
2019-02-17T04:12:01.135Z,0
2019-02-17T04:13:00.865Z,0
2019-02-17T04:14:01.102Z,0
2019-02-17T04:15:01.128Z,0
2019-02-17T04:16:01.101Z,0
2019-02-17T04:17:00.822Z,0
2019-02-17T04:18:01.130Z,0
2019-02-17T04:19:00.876Z,0
2019-02-17T04:20:00.577Z,0
2019-02-17T04:21:01.046Z,0
2019-02-17T04:22:01.048Z,0
2019-02-17T04:23:00.516Z,0
2019-02-17T04:24:00.757Z,0
2019-02-17T04:25:00.995Z,0
2019-02-17T04:26:00.733Z,0
2019-02-17T04:27:00.753Z,0
2019-02-17T04:28:00.968Z,0
2019-02-17T04:29:00.973Z,0
2019-02-17T04:30:00.696Z,0
2019-02-17T04:31:00.442Z,0
2019-02-17T04:32:00.670Z,0
2019-02-17T04:33:00.800Z,0
2019-02-17T04:34:00.890Z,0
2019-02-17T04:35:02.377Z,0
2019-02-17T04:36:00.362Z,0
2019-02-17T04:37:00.873Z,0
2019-02-17T04:38:00.340Z,0
2019-02-17T04:39:00.078Z,0
2019-02-17T04:40:00.560Z,0
2019-02-17T04:41:00.799Z,0
2019-02-17T04:42:00.574Z,0
2019-02-17T04:43:00.548Z,0
2019-02-17T04:44:00.524Z,0
2019-02-17T04:45:00.525Z,0
2019-02-17T04:46:00.264Z,0
2019-02-17T04:47:00.268Z,0
2019-02-17T04:48:00.511Z,0
2019-02-17T04:49:00.465Z,0
2019-02-17T04:50:00.244Z,0
2019-02-17T04:51:00.435Z,0
2019-02-17T04:52:00.723Z,0
2019-02-17T04:53:00.434Z,0
2019-02-17T04:54:00.172Z,0
2019-02-17T04:55:00.400Z,0
2019-02-17T04:56:00.156Z,0
2019-02-17T04:57:00.391Z,0
2019-02-17T04:58:00.376Z,0
2019-02-17T04:59:00.123Z,0
2019-02-17T05:00:00.402Z,0
2019-02-17T05:01:00.344Z,0
2019-02-17T05:02:00.578Z,0
2019-02-17T05:03:00.309Z,0
2019-02-17T05:04:00.312Z,0
2019-02-17T05:05:00.402Z,0
2019-02-17T05:06:00.282Z,0
2019-02-17T05:07:00.547Z,0
2019-02-17T05:08:00.520Z,0
2019-02-17T05:09:00.505Z,0
2019-02-17T05:09:59.991Z,0
2019-02-17T05:11:00.484Z,0
2019-02-17T05:11:59.951Z,0
2019-02-17T05:13:00.204Z,0
2019-02-17T05:13:59.930Z,0
2019-02-17T05:15:00.334Z,0
2019-02-17T05:15:59.911Z,0
2019-02-17T05:17:00.154Z,0
2019-02-17T05:18:00.187Z,0
2019-02-17T05:19:00.129Z,0
2019-02-17T05:20:00.190Z,0
2019-02-17T05:21:00.356Z,0
2019-02-17T05:22:00.351Z,0
2019-02-17T05:23:00.076Z,0
2019-02-17T05:23:59.825Z,0
2019-02-17T05:25:00.381Z,0
2019-02-17T05:26:00.052Z,0
2019-02-17T05:27:00.029Z,0
2019-02-17T05:27:59.783Z,0
2019-02-17T05:29:01.561Z,0
2019-02-17T05:30:00.018Z,0
2019-02-17T05:31:00.795Z,0
2019-02-17T05:32:00.234Z,0
2019-02-17T05:32:59.969Z,0
2019-02-17T05:33:59.983Z,0
2019-02-17T05:35:01.551Z,0
2019-02-17T05:36:00.170Z,0
2019-02-17T05:36:59.427Z,0
2019-02-17T05:37:59.902Z,0
2019-02-17T05:38:59.892Z,0
2019-02-17T05:39:59.641Z,0
2019-02-17T05:40:59.895Z,0
2019-02-17T05:42:00.141Z,0
2019-02-17T05:43:00.118Z,0
2019-02-17T05:43:59.606Z,0
2019-02-17T05:44:59.840Z,0
2019-02-17T05:46:00.065Z,0
2019-02-17T05:47:00.080Z,0
2019-02-17T05:47:59.806Z,0
2019-02-17T05:48:59.767Z,0
2019-02-17T05:49:59.619Z,0
2019-02-17T05:51:00.024Z,0
2019-02-17T05:51:59.760Z,0
2019-02-17T05:52:59.484Z,0
2019-02-17T05:53:59.737Z,4
2019-02-17T05:54:59.730Z,4
2019-02-17T05:55:59.974Z,0
2019-02-17T05:56:59.948Z,0
2019-02-17T05:57:59.437Z,4
2019-02-17T05:58:59.683Z,4
2019-02-17T05:59:59.645Z,4
2019-02-17T06:01:11.775Z,4
2019-02-17T06:01:59.885Z,4
2019-02-17T06:02:59.901Z,4
2019-02-17T06:03:59.603Z,8
2019-02-17T06:04:59.335Z,8
2019-02-17T06:06:00.692Z,8
2019-02-17T06:06:59.344Z,12
2019-02-17T06:07:59.578Z,16
2019-02-17T06:08:59.304Z,16
2019-02-17T06:09:59.795Z,20
2019-02-17T06:10:59.528Z,24
2019-02-17T06:11:59.554Z,32
2019-02-17T06:12:59.522Z,40
2019-02-17T06:13:59.244Z,44
2019-02-17T06:14:59.743Z,52
2019-02-17T06:15:59.265Z,64
2019-02-17T06:16:59.237Z,72
2019-02-17T06:17:59.463Z,84
2019-02-17T06:18:59.422Z,96
2019-02-17T06:19:59.430Z,108
2019-02-17T06:20:59.164Z,124
2019-02-17T06:21:59.161Z,144
2019-02-17T06:22:59.129Z,164
2019-02-17T06:23:59.382Z,188
2019-02-17T06:24:59.348Z,208
2019-02-17T06:25:59.640Z,232
2019-02-17T06:26:59.561Z,260
2019-02-17T06:27:59.311Z,292
2019-02-17T06:28:58.813Z,320
2019-02-17T06:29:59.106Z,352
2019-02-17T06:30:59.272Z,384
2019-02-17T06:31:59.022Z,416
2019-02-17T06:32:59.485Z,452
2019-02-17T06:33:59.485Z,492
2019-02-17T06:34:58.973Z,532
2019-02-17T06:35:59.208Z,572
2019-02-17T06:36:58.714Z,616
2019-02-17T06:37:59.191Z,660
2019-02-17T06:38:59.187Z,704
2019-02-17T06:39:59.405Z,748
2019-02-17T06:40:59.141Z,792
2019-02-17T06:41:59.144Z,840
2019-02-17T06:42:59.435Z,888
2019-02-17T06:43:59.110Z,936
2019-02-17T06:44:59.103Z,988
2019-02-17T06:45:59.077Z,1036
2019-02-17T06:46:59.077Z,1088
2019-02-17T06:47:58.824Z,1140
2019-02-17T06:48:58.787Z,1192
2019-02-17T06:49:58.781Z,1244
2019-02-17T06:50:58.512Z,1300
2019-02-17T06:51:59.007Z,1352
2019-02-17T06:52:59.261Z,1404
2019-02-17T06:53:58.726Z,1456
2019-02-17T06:54:58.704Z,1508
2019-02-17T06:55:58.951Z,1556
2019-02-17T06:56:59.190Z,1600
2019-02-17T06:57:58.679Z,1644
2019-02-17T06:58:59.160Z,1696
2019-02-17T06:59:58.899Z,1744
2019-02-17T07:00:58.905Z,1788
2019-02-17T07:01:58.643Z,1836
2019-02-17T07:02:58.614Z,1884
2019-02-17T07:03:58.936Z,1928
2019-02-17T07:04:59.027Z,1972
2019-02-17T07:06:01.263Z,2020
2019-02-17T07:06:59.081Z,2064
2019-02-17T07:07:59.051Z,2116
2019-02-17T07:08:58.800Z,2168
2019-02-17T07:09:58.788Z,2216
2019-02-17T07:10:58.516Z,2264
2019-02-17T07:11:59.352Z,2308
2019-02-17T07:12:58.743Z,2352
2019-02-17T07:13:58.793Z,2392
2019-02-17T07:14:58.980Z,2436
2019-02-17T07:15:58.493Z,2480
2019-02-17T07:16:58.457Z,2520
2019-02-17T07:18:01.335Z,2564
2019-02-17T07:18:58.922Z,2600
2019-02-17T07:19:58.460Z,2640
2019-02-17T07:20:58.399Z,2680
2019-02-17T07:21:58.397Z,2720
2019-02-17T07:22:58.618Z,2772
2019-02-17T07:23:58.609Z,2828
2019-02-17T07:24:58.372Z,2916
2019-02-17T07:25:58.345Z,3092
2019-02-17T07:26:58.825Z,3316
2019-02-17T07:27:58.583Z,3536
2019-02-17T07:28:58.562Z,3828
2019-02-17T07:29:58.543Z,4124
2019-02-17T07:30:58.295Z,4372
2019-02-17T07:31:58.296Z,4564
2019-02-17T07:32:58.015Z,4688
2019-02-17T07:33:58.522Z,4744
2019-02-17T07:34:59.759Z,4812
2019-02-17T07:35:58.868Z,4872
2019-02-17T07:36:58.496Z,4916
2019-02-17T07:37:58.720Z,4964
2019-02-17T07:38:57.972Z,5016
2019-02-17T07:39:58.461Z,5056
2019-02-17T07:40:58.228Z,5096
2019-02-17T07:41:58.461Z,5132
2019-02-17T07:42:58.434Z,5168
2019-02-17T07:43:58.188Z,5196
2019-02-17T07:44:58.680Z,5140
2019-02-17T07:45:58.174Z,5260
2019-02-17T07:46:58.160Z,5296
2019-02-17T07:47:58.408Z,5320
2019-02-17T07:48:58.415Z,5360
2019-02-17T07:49:58.412Z,5388
2019-02-17T07:50:59.301Z,5432
2019-02-17T07:51:58.437Z,5464
2019-02-17T07:52:58.139Z,5464
2019-02-17T07:53:58.390Z,5336
2019-02-17T07:54:58.390Z,5232
2019-02-17T07:55:58.134Z,5220
2019-02-17T07:56:58.400Z,5260
2019-02-17T07:57:58.397Z,5308
2019-02-17T07:58:58.380Z,5352
2019-02-17T07:59:58.399Z,5380
2019-02-17T08:00:58.383Z,5348
2019-02-17T08:01:58.113Z,5244
2019-02-17T08:02:58.403Z,5140
2019-02-17T08:03:58.092Z,5068
2019-02-17T08:04:58.089Z,5036
2019-02-17T08:05:57.839Z,5024
2019-02-17T08:06:58.338Z,5048
2019-02-17T08:07:58.109Z,5060
2019-02-17T08:08:58.331Z,5092
2019-02-17T08:10:00.592Z,5116
2019-02-17T08:11:08.474Z,5136
2019-02-17T08:11:58.640Z,5152
2019-02-17T08:12:58.044Z,5176
2019-02-17T08:13:58.065Z,5212
2019-02-17T08:14:58.449Z,5236
2019-02-17T08:15:58.566Z,5240
2019-02-17T08:16:57.801Z,5240
2019-02-17T08:17:58.535Z,5256
2019-02-17T08:18:58.554Z,5264
2019-02-17T08:19:58.014Z,5268
2019-02-17T08:20:58.512Z,5284
2019-02-17T08:21:58.026Z,5296
2019-02-17T08:22:58.260Z,5324
2019-02-17T08:23:58.006Z,5344
2019-02-17T08:24:58.327Z,5344
2019-02-17T08:25:58.493Z,5344
2019-02-17T08:26:58.489Z,5348
2019-02-17T08:27:58.488Z,5376
2019-02-17T08:28:58.249Z,5420
2019-02-17T08:29:58.234Z,5472
2019-02-17T08:30:58.257Z,5540
2019-02-17T08:32:02.950Z,5632
2019-02-17T08:32:58.222Z,5708
2019-02-17T08:33:58.234Z,5788
2019-02-17T08:35:00.479Z,5872
2019-02-17T08:35:58.015Z,5944
2019-02-17T08:36:59.806Z,6008
2019-02-17T08:37:58.487Z,6064
2019-02-17T08:38:58.205Z,6112
2019-02-17T08:39:58.371Z,6156
2019-02-17T08:40:58.202Z,6196
2019-02-17T08:41:58.197Z,6232
2019-02-17T08:42:58.212Z,6272
2019-02-17T08:43:57.692Z,6304
2019-02-17T08:44:58.198Z,6336
2019-02-17T08:45:58.433Z,6380
2019-02-17T08:46:57.930Z,6424
2019-02-17T08:47:58.183Z,6460
2019-02-17T08:48:57.969Z,6492
2019-02-17T08:49:58.413Z,6512
2019-02-17T08:50:58.424Z,6536
2019-02-17T08:51:58.164Z,6552
2019-02-17T08:52:58.187Z,6576
2019-02-17T08:53:58.409Z,6596
2019-02-17T08:54:57.657Z,6612
2019-02-17T08:55:58.414Z,6632
2019-02-17T08:56:58.137Z,6652
2019-02-17T08:57:58.384Z,6672
2019-02-17T08:58:58.130Z,6696
2019-02-17T08:59:58.356Z,6712
2019-02-17T09:00:58.358Z,6720
2019-02-17T09:02:08.088Z,6732
2019-02-17T09:02:57.855Z,6732
2019-02-17T09:03:57.847Z,6740
2019-02-17T09:04:58.090Z,6740
2019-02-17T09:05:57.836Z,6752
2019-02-17T09:06:58.081Z,6760
2019-02-17T09:07:58.090Z,6760
2019-02-17T09:08:58.082Z,6780
2019-02-17T09:09:57.832Z,6780
2019-02-17T09:10:58.037Z,6792
2019-02-17T09:11:57.542Z,6796
2019-02-17T09:12:58.268Z,6800
2019-02-17T09:13:58.274Z,6816
2019-02-17T09:14:58.264Z,6820
2019-02-17T09:15:58.038Z,6824
2019-02-17T09:16:57.741Z,6832
2019-02-17T09:17:58.235Z,6848
2019-02-17T09:18:57.987Z,6852
2019-02-17T09:19:58.001Z,6852
2019-02-17T09:20:58.239Z,6864
2019-02-17T09:21:57.705Z,6856
2019-02-17T09:22:57.954Z,6860
2019-02-17T09:23:58.183Z,6860
2019-02-17T09:24:58.215Z,6864
2019-02-17T09:25:57.683Z,6892
2019-02-17T09:26:58.199Z,6908
2019-02-17T09:27:57.955Z,6916
2019-02-17T09:28:57.651Z,6904
2019-02-17T09:29:57.892Z,6896
2019-02-17T09:30:58.125Z,6892
2019-02-17T09:31:59.425Z,6888
2019-02-17T09:32:58.106Z,6876
2019-02-17T09:33:57.865Z,6880
2019-02-17T09:34:57.863Z,6880
2019-02-17T09:35:58.098Z,6876
2019-02-17T09:36:58.139Z,6868
2019-02-17T09:37:57.823Z,6880
2019-02-17T09:38:57.827Z,6888
2019-02-17T09:39:57.828Z,6888
2019-02-17T09:40:57.820Z,6888
2019-02-17T09:41:57.804Z,6888
2019-02-17T09:42:57.806Z,6892
2019-02-17T09:43:57.310Z,6868
2019-02-17T09:44:58.061Z,6844
2019-02-17T09:45:58.036Z,6836
2019-02-17T09:46:58.017Z,6696
2019-02-17T09:47:57.776Z,6812
2019-02-17T09:48:58.028Z,6808
2019-02-17T09:49:57.749Z,6796
2019-02-17T09:50:57.737Z,6796
2019-02-17T09:51:57.288Z,6784
2019-02-17T09:52:57.993Z,6776
2019-02-17T09:53:57.959Z,6764
2019-02-17T09:54:57.716Z,6760
2019-02-17T09:55:59.719Z,6772
2019-02-17T09:56:57.963Z,6788
2019-02-17T09:57:57.935Z,6780
2019-02-17T09:58:57.930Z,6764
2019-02-17T09:59:57.665Z,6752
2019-02-17T10:00:57.930Z,6744
2019-02-17T10:01:57.418Z,6728
2019-02-17T10:02:57.914Z,6716
2019-02-17T10:03:57.891Z,6708
2019-02-17T10:04:57.896Z,6700
2019-02-17T10:05:57.393Z,6688
2019-02-17T10:06:57.867Z,6672
2019-02-17T10:07:58.252Z,6640
2019-02-17T10:08:57.630Z,6620
2019-02-17T10:09:57.610Z,6604
2019-02-17T10:10:57.596Z,6596
2019-02-17T10:11:57.853Z,6576
2019-02-17T10:12:57.847Z,6564
2019-02-17T10:13:57.910Z,6564
2019-02-17T10:14:57.577Z,6564
2019-02-17T10:15:57.631Z,6560
2019-02-17T10:16:57.650Z,6544
2019-02-17T10:17:57.851Z,6528
2019-02-17T10:18:57.804Z,6508
2019-02-17T10:19:57.817Z,6500
2019-02-17T10:20:57.797Z,6500
2019-02-17T10:21:57.594Z,6496
2019-02-17T10:22:57.269Z,6488
2019-02-17T10:23:57.777Z,6484
2019-02-17T10:24:57.766Z,6476
2019-02-17T10:25:58.795Z,6472
2019-02-17T10:26:57.255Z,6468
2019-02-17T10:27:57.765Z,6460
2019-02-17T10:28:57.497Z,6448
2019-02-17T10:29:57.736Z,6440
2019-02-17T10:30:57.722Z,6432
2019-02-17T10:31:57.481Z,6420
2019-02-17T10:32:57.703Z,6412
2019-02-17T10:33:57.737Z,6404
2019-02-17T10:34:57.451Z,6380
2019-02-17T10:35:57.440Z,6356
2019-02-17T10:36:57.750Z,6340
2019-02-17T10:37:57.209Z,6340
2019-02-17T10:38:58.512Z,6336
2019-02-17T10:39:57.174Z,6340
2019-02-17T10:40:57.153Z,6356
2019-02-17T10:41:57.169Z,6376
2019-02-17T10:42:57.462Z,6404
2019-02-17T10:43:57.415Z,6400
2019-02-17T10:44:57.178Z,6396
2019-02-17T10:45:57.396Z,6404
2019-02-17T10:46:57.376Z,6392
2019-02-17T10:47:57.447Z,6380
2019-02-17T10:48:57.124Z,6376
2019-02-17T10:49:57.127Z,6372
2019-02-17T10:50:57.595Z,6360
2019-02-17T10:51:57.348Z,6348
2019-02-17T10:52:57.330Z,6336
2019-02-17T10:53:57.585Z,6324
2019-02-17T10:54:57.081Z,6312
2019-02-17T10:55:57.574Z,6304
2019-02-17T10:56:57.325Z,6292
2019-02-17T10:57:57.078Z,6284
2019-02-17T10:58:57.319Z,6272
2019-02-17T10:59:58.463Z,6260
2019-02-17T11:00:57.300Z,6248
2019-02-17T11:01:57.282Z,6240
2019-02-17T11:02:57.533Z,6220
2019-02-17T11:03:57.038Z,6212
2019-02-17T11:04:57.517Z,6216
2019-02-17T11:05:57.517Z,6208
2019-02-17T11:06:57.020Z,6208
2019-02-17T11:07:57.278Z,6204
2019-02-17T11:08:57.268Z,6196
2019-02-17T11:09:56.776Z,6196
2019-02-17T11:10:57.260Z,6060
2019-02-17T11:11:57.298Z,6184
2019-02-17T11:12:57.525Z,6184
2019-02-17T11:13:57.252Z,6168
2019-02-17T11:14:57.522Z,6120
2019-02-17T11:15:57.254Z,6008
2019-02-17T11:16:57.193Z,5912
2019-02-17T11:17:57.219Z,5972
2019-02-17T11:18:58.884Z,6048
2019-02-17T11:19:57.200Z,6104
2019-02-17T11:20:56.940Z,6136
2019-02-17T11:21:57.432Z,6136
2019-02-17T11:22:57.193Z,6132
2019-02-17T11:23:56.908Z,6128
2019-02-17T11:24:57.766Z,6128
2019-02-17T11:25:56.934Z,6116
2019-02-17T11:26:57.183Z,6108
2019-02-17T11:27:56.905Z,6100
2019-02-17T11:28:57.204Z,6088
2019-02-17T11:29:57.166Z,6084
2019-02-17T11:30:57.149Z,6072
2019-02-17T11:31:57.154Z,6052
2019-02-17T11:33:04.795Z,6036
2019-02-17T11:33:56.614Z,6024
2019-02-17T11:34:57.432Z,6008
2019-02-17T11:35:57.132Z,5992
2019-02-17T11:36:56.919Z,5976
2019-02-17T11:37:57.105Z,5960
2019-02-17T11:38:57.099Z,5948
2019-02-17T11:39:56.833Z,5932
2019-02-17T11:40:57.125Z,5920
2019-02-17T11:41:57.079Z,5912
2019-02-17T11:42:57.339Z,5896
2019-02-17T11:43:56.816Z,5896
2019-02-17T11:44:56.555Z,5888
2019-02-17T11:45:57.075Z,5876
2019-02-17T11:46:57.296Z,5872
2019-02-17T11:47:57.027Z,5864
2019-02-17T11:48:56.564Z,5848
2019-02-17T11:49:57.116Z,5836
2019-02-17T11:50:56.822Z,5816
2019-02-17T11:51:57.048Z,5780
2019-02-17T11:52:56.846Z,5768
2019-02-17T11:53:57.033Z,5756
2019-02-17T11:54:57.018Z,5748
2019-02-17T11:55:57.028Z,5736
2019-02-17T11:56:57.058Z,5728
2019-02-17T11:57:57.272Z,5724
2019-02-17T11:58:56.743Z,5724
2019-02-17T11:59:57.405Z,5712
2019-02-17T12:00:57.227Z,5708
2019-02-17T12:01:57.258Z,5696
2019-02-17T12:02:56.741Z,5700
2019-02-17T12:03:56.978Z,5704
2019-02-17T12:04:56.979Z,5704
2019-02-17T12:05:56.970Z,5704
2019-02-17T12:06:56.960Z,5700
2019-02-17T12:07:56.723Z,5696
2019-02-17T12:08:56.730Z,5684
2019-02-17T12:09:56.719Z,5676
2019-02-17T12:10:56.967Z,5672
2019-02-17T12:11:57.204Z,5660
2019-02-17T12:12:56.955Z,5648
2019-02-17T12:13:56.706Z,5640
2019-02-17T12:14:56.932Z,5628
2019-02-17T12:15:56.960Z,5616
2019-02-17T12:16:56.981Z,5616
2019-02-17T12:17:59.147Z,5604
2019-02-17T12:18:56.677Z,5592
2019-02-17T12:19:56.919Z,5584
2019-02-17T12:20:57.163Z,5580
2019-02-17T12:21:56.975Z,5576
2019-02-17T12:22:56.933Z,5556
2019-02-17T12:23:56.928Z,5552
2019-02-17T12:24:56.668Z,5544
2019-02-17T12:25:56.902Z,5532
2019-02-17T12:26:57.215Z,5516
2019-02-17T12:27:57.183Z,5504
2019-02-17T12:28:57.145Z,5488
2019-02-17T12:29:56.898Z,5480
2019-02-17T12:30:56.638Z,5476
2019-02-17T12:31:57.829Z,5472
2019-02-17T12:32:58.477Z,5472
2019-02-17T12:33:57.147Z,5468
2019-02-17T12:34:56.875Z,5452
2019-02-17T12:35:57.133Z,5444
2019-02-17T12:36:56.883Z,5432
2019-02-17T12:38:58.553Z,5408
2019-02-17T12:39:56.882Z,5396
2019-02-17T12:40:56.860Z,5388
2019-02-17T12:41:56.854Z,5380
2019-02-17T12:42:58.326Z,5368
2019-02-17T12:43:56.830Z,5348
2019-02-17T12:44:59.547Z,5340
2019-02-17T12:45:57.116Z,5328
2019-02-17T12:46:56.853Z,5324
2019-02-17T12:48:05.093Z,5316
2019-02-17T12:48:56.845Z,5304
2019-02-17T12:49:56.826Z,5288
2019-02-17T12:50:56.835Z,5280
2019-02-17T12:51:56.842Z,5264
2019-02-17T12:52:56.340Z,5252
2019-02-17T12:53:56.659Z,5240
2019-02-17T12:54:56.557Z,5224
2019-02-17T12:55:56.800Z,5204
2019-02-17T12:56:56.982Z,5196
2019-02-17T12:57:56.846Z,5180
2019-02-17T12:58:57.055Z,5172
2019-02-17T12:59:56.804Z,5152
2019-02-17T13:00:57.069Z,5148
2019-02-17T13:01:56.807Z,5144
2019-02-17T13:02:56.801Z,5132
2019-02-17T13:03:56.538Z,5120
2019-02-17T13:04:56.535Z,5104
2019-02-17T13:05:57.077Z,5092
2019-02-17T13:06:57.044Z,5088
2019-02-17T13:07:56.798Z,5076
2019-02-17T13:08:56.664Z,5064
2019-02-17T13:09:56.522Z,5052
2019-02-17T13:10:57.009Z,5040
2019-02-17T13:11:56.784Z,5040
2019-02-17T13:12:56.297Z,5020
2019-02-17T13:13:56.769Z,5012
2019-02-17T13:14:56.273Z,5000
2019-02-17T13:15:56.780Z,4988
2019-02-17T13:16:57.013Z,4972
2019-02-17T13:17:57.840Z,4960
2019-02-17T13:18:56.760Z,4948
2019-02-17T13:19:56.771Z,4936
2019-02-17T13:20:56.507Z,4908
2019-02-17T13:21:56.737Z,4892
2019-02-17T13:22:57.022Z,4872
2019-02-17T13:23:58.717Z,4852
2019-02-17T13:24:56.757Z,4836
2019-02-17T13:25:56.998Z,4808
2019-02-17T13:26:56.748Z,4768
2019-02-17T13:27:56.745Z,4744
2019-02-17T13:28:56.509Z,4732
2019-02-17T13:29:57.004Z,4712
2019-02-17T13:30:58.337Z,4724
2019-02-17T13:31:56.976Z,4724
2019-02-17T13:32:56.249Z,4724
2019-02-17T13:33:56.744Z,4724
2019-02-17T13:34:56.981Z,4720
2019-02-17T13:35:56.712Z,4700
2019-02-17T13:36:56.727Z,4688
2019-02-17T13:37:56.507Z,4680
2019-02-17T13:38:56.829Z,4664
2019-02-17T13:39:56.205Z,4644
2019-02-17T13:40:56.480Z,4620
2019-02-17T13:41:56.473Z,4604
2019-02-17T13:42:56.211Z,4588
2019-02-17T13:43:56.718Z,4580
2019-02-17T13:44:56.703Z,4584
2019-02-17T13:45:56.455Z,4568
2019-02-17T13:46:56.952Z,4560
2019-02-17T13:47:56.466Z,4540
2019-02-17T13:48:56.942Z,4528
2019-02-17T13:49:56.701Z,4520
2019-02-17T13:50:56.691Z,4512
2019-02-17T13:51:56.986Z,4504
2019-02-17T13:52:56.713Z,4488
2019-02-17T13:53:56.242Z,4464
2019-02-17T13:54:56.928Z,4448
2019-02-17T13:55:56.706Z,4428
2019-02-17T13:56:56.937Z,4420